CYPK weather

Pitt Meadows Airport
Pitt Meadows, British Columbia, Canada

Public forecast

Using degrees Celsius for public forecast. Weather courtesy of forecast.io.

Closest aviation weather report (METAR) to Pitt Meadows Airport

Closest report is Abbotsford Airport, 17.9 nm (33.1 km) SE. Retrieved 2019/10/20 04:00 UTC (36 minutes ago):

CYXX 200400Z 16008KT 10SM OVC020 09/07 A2993 RMK SC8 SLP139

Closest aviation forecast (TAF) to Pitt Meadows Airport

Closest forecast is Abbotsford Airport, 17.9 nm (33.1 km) SE. Retrieved 2019-10-20 00:39 UTC (4 hours ago):

TAF CYXX 192338Z 2000/2024 28007KT P6SM SCT015 BKN030 TEMPO 2000/2011 4SM -SHRA BR FEW005 BKN015 OVC030 BECMG 2000/2002 21007KT FM201100 19005KT P6SM BKN030 FM201500 07008KT P6SM -RA SCT015 OVC030 TEMPO 2015/2024 3SM SHRA BR BKN015 OVC030 RMK NXT FCST BY 200600Z